Geervliet — PCLI — position and weather

sailwx.info

Track history (hours):
 
Tides and Currents Weather Stations Pressure Air Temp Water Temp Dewpoint Dewpoint Depression Visibility Wind Speed Wind Dir Waves Ship Positions

Geervliet

Last reported at 2017-Mar-25 03:33 UTC. Time now 2017-Mar-25 03:59 UTC.
Position N 51°33' W 002°59'.

Length 86 m; draft 5.3 m.

Type: Ship. MMSI: 246803000.

Date/timePositionNaut miles runAvg speedWind from/ knotsBaromVisibWave heightAir tempDewpointWater temp
2017-Mar-25 03:33N 51°33' W 002°59'0 0.0
2017-Mar-25 02:33N 51°33' W 002°59'0 0.0
2017-Mar-25 01:33N 51°33' W 002°59'0 0.0
2017-Mar-25 00:34N 51°33' W 002°59'0 0.0
2017-Mar-24 23:33N 51°33' W 002°59'0 0.0
2017-Mar-24 22:31N 51°33' W 002°59'0 0.0
2017-Mar-24 21:34N 51°33' W 002°59'0 0.0
2017-Mar-24 20:32N 51°33' W 002°59'0 0.0
2017-Mar-24 19:32N 51°33' W 002°59'0 0.0
2017-Mar-24 18:29N 51°33' W 002°59'1 0.6
2017-Mar-24 17:32N 51°34' W 002°59'0 0.0
2017-Mar-24 16:32N 51°34' W 002°59'0 0.0
2017-Mar-24 15:05N 51°34' W 002°59'0 0.0
2017-Mar-24 14:26N 51°34' W 002°59'0 0.0
2017-Mar-24 13:32N 51°34' W 002°59'0 0.0
2017-Mar-24 12:32N 51°34' W 002°59'0 0.0
2017-Mar-24 11:32N 51°34' W 002°59'0 0.0
2017-Mar-24 10:32N 51°34' W 002°59'0 0.0
2017-Mar-24 09:32N 51°34' W 002°59'0 0.0
2017-Mar-24 08:32N 51°34' W 002°59'0 0.0
2017-Mar-24 07:26N 51°34' W 002°59'0 0.0
2017-Mar-24 06:32N 51°34' W 002°59'0 0.0
2017-Mar-24 05:32N 51°34' W 002°59'0 0.0
2017-Mar-24 04:26N 51°34' W 002°59'0 0.0
2017-Mar-24 03:32N 51°34' W 002°59'0 0.0
2017-Mar-24 02:32N 51°34' W 002°59'0 0.0
2017-Mar-24 01:32N 51°34' W 002°59'0 0.0
2017-Mar-24 00:32N 51°34' W 002°59'0 0.0
2017-Mar-23 23:26N 51°34' W 002°59'0 0.0
2017-Mar-23 22:32N 51°34' W 002°59'0 0.0
2017-Mar-23 21:32N 51°34' W 002°59'0 0.0
2017-Mar-23 20:32N 51°34' W 002°59'0 0.0
2017-Mar-23 19:32N 51°34' W 002°59'0 0.0
2017-Mar-23 18:20N 51°34' W 002°59'0 0.0
2017-Mar-23 17:32N 51°34' W 002°59'1 0.9
2017-Mar-23 16:33N 51°33' W 002°59'3 2.9
2017-Mar-23 15:33N 51°30' W 003°00'51 9.9
2017-Mar-23 10:24N 51°14' W 004°17'910.2
2017-Mar-23 09:32N 51°08' W 004°28'10 9.9
2017-Mar-23 08:33N 51°01' W 004°39'10 9.7
2017-Mar-23 07:33N 50°55' W 004°50'10 9.5
2017-Mar-23 06:33N 50°49' W 005°02'9 9.5
2017-Mar-23 05:33N 50°42' W 005°13'9 9.4
2017-Mar-23 04:33N 50°36' W 005°24'9 9.4
2017-Mar-23 03:33N 50°30' W 005°35'10 9.6
2017-Mar-23 02:33N 50°24' W 005°47'38 7.0
2017-Mar-22 21:05N 49°54' W 005°08'6 9.8
2017-Mar-22 20:30N 49°55' W 004°59'9 9.9
2017-Mar-22 19:32N 49°56' W 004°45'10 9.9
2017-Mar-22 18:31N 49°56' W 004°29'9 9.6
2017-Mar-22 17:33N 49°57' W 004°15'10 9.5
2017-Mar-22 16:31N 49°58' W 003°59'9 9.2
2017-Mar-22 15:33N 49°59' W 003°46'9 8.9
2017-Mar-22 14:33N 49°59' W 003°32'9 8.7
2017-Mar-22 13:33N 49°60' W 003°18'9 8.7
2017-Mar-22 12:33N 50°00' W 003°05'9 8.9
2017-Mar-22 11:32N 50°02' W 002°51'34 8.5
2017-Mar-22 07:32N 50°09' W 001°59'8 8.0
2017-Mar-22 06:33N 50°01' W 001°55'8 7.7
2017-Mar-22 05:33N 49°55' W 001°50'7 6.5
2017-Mar-22 04:33N 49°52' W 001°40'7 6.9
2017-Mar-22 03:33N 49°50' W 001°30'6 6.3
2017-Mar-22 02:33N 49°48' W 001°21'6 5.7
2017-Mar-22 01:33N 49°45' W 001°13'6 6.4
2017-Mar-22 00:33N 49°43' W 001°04'7 7.3
2017-Mar-21 23:33N 49°41' W 000°53'8 7.9
2017-Mar-21 22:33N 49°38' W 000°41'8 8.0
2017-Mar-21 21:33N 49°35' W 000°30'8 8.4
2017-Mar-21 20:33N 49°32' W 000°18'8 8.5
2017-Mar-21 19:33N 49°29' W 000°06'10 9.6
2017-Mar-21 18:33N 49°26' E 000°08'1110.8
2017-Mar-21 17:33N 49°27' E 000°25'8 7.6
2017-Mar-21 16:33N 49°26' E 000°36'8 7.1
2017-Mar-21 15:26N 49°31' E 000°45'9 0.3
2017-Mar-20 12:32N 49°26' E 000°34'9 9.3
2017-Mar-20 11:34N 49°26' E 000°20'1110.7
2017-Mar-20 10:34N 49°26' E 000°04'6 5.8
2017-Mar-20 09:28N 49°28' W 000°05'0 0.0
2017-Mar-20 08:31N 49°28' W 000°05'0 0.0
2017-Mar-20 07:31N 49°28' W 000°05'0 0.0
2017-Mar-20 06:31N 49°28' W 000°05'0 0.0
2017-Mar-20 05:31N 49°28' W 000°05'0 0.0
2017-Mar-20 04:31N 49°28' W 000°05'0 0.0
2017-Mar-20 03:31N 49°28' W 000°05'0 0.0
2017-Mar-20 02:31N 49°28' W 000°05'0 0.0
2017-Mar-20 01:31N 49°28' W 000°05'0 0.0
2017-Mar-20 00:31N 49°28' W 000°05'2 2.4
2017-Mar-19 23:33N 49°30' W 000°08'1110.7
2017-Mar-19 22:33N 49°33' W 000°24'1111.2
2017-Mar-19 21:33N 49°37' W 000°40'1110.7
2017-Mar-19 20:33N 49°40' W 000°56'10 9.7
2017-Mar-19 19:33N 49°43' W 001°10'8 8.4
2017-Mar-19 18:33N 49°45' W 001°22'7 7.5
2017-Mar-19 17:33N 49°47' W 001°34'8 8.0
2017-Mar-19 16:34N 49°49' W 001°46'9 8.9
2017-Mar-19 15:33N 49°50' W 001°59'1110.2
2017-Mar-19 14:28N 49°52' W 002°16'1010.8
2017-Mar-19 13:33N 49°51' W 002°32'1111.3
2017-Mar-19 12:33N 49°48' W 002°48'1211.1
2017-Mar-19 11:31N 49°43' W 003°04'1111.0
2017-Mar-19 10:32N 49°38' W 003°18'1110.9
2017-Mar-19 09:33N 49°32' W 003°33'1210.9
2017-Mar-19 08:29N 49°26' W 003°48'1310.7
2017-Mar-19 07:15N 49°20' W 004°06'710.4
2017-Mar-19 06:33N 49°16' W 004°16'1110.3
2017-Mar-19 05:26N 49°10' W 004°31'910.0
2017-Mar-19 04:33N 49°06' W 004°42'11 9.5
2017-Mar-19 03:23N 48°60' W 004°57'8 9.0
2017-Mar-19 02:32N 48°56' W 005°07'8 8.7
2017-Mar-19 01:34N 48°52' W 005°18'9 8.6
2017-Mar-19 00:32N 48°47' W 005°30'8 8.3
2017-Mar-18 23:33N 48°41' W 005°38'9 8.7
2017-Mar-18 22:33N 48°33' W 005°44'37 8.5
2017-Mar-18 18:10N 48°00' W 006°09'6 8.5
2017-Mar-18 17:28N 47°55' W 006°07'8 8.5
2017-Mar-18 16:30N 47°47' W 006°04'9 8.6
2017-Mar-18 15:25N 47°38' W 005°59'7 8.4
2017-Mar-18 14:33N 47°31' W 005°56'  
2017-Mar-16 04:18N 39°35' W 009°51'7 9.8
2017-Mar-16 03:33N 39°28' W 009°51'10 9.8
2017-Mar-16 02:33N 39°18' W 009°51'10 9.9
2017-Mar-16 01:33N 39°08' W 009°51'10 9.8
2017-Mar-16 00:33N 38°58' W 009°51'10 9.9
2017-Mar-15 23:33N 38°48' W 009°51'10 9.5
2017-Mar-15 22:33N 38°39' W 009°50'9 9.5
2017-Mar-15 21:33N 38°30' W 009°47'10 9.6
2017-Mar-15 20:33N 38°20' W 009°44'10 9.9
2017-Mar-15 19:33N 38°11' W 009°42'1010.1
2017-Mar-15 18:33N 38°01' W 009°39'1010.2
2017-Mar-15 17:33N 37°51' W 009°37'1010.1
2017-Mar-15 16:33N 37°41' W 009°35'80 8.7
2017-Mar-15 07:20N 36°37' W 008°33'  
Track history (hours):
 
Tides and Currents Weather Stations Pressure Air Temp Water Temp Dewpoint Dewpoint Depression Visibility Wind Speed Wind Dir Waves Ship Positions

Geervliet

Last reported at 2017-Mar-25 03:33 UTC. Time now 2017-Mar-25 03:59 UTC.
Position N 51°33' W 002°59'.

Length 86 m; draft 5.3 m.

Type: Ship. MMSI: 246803000.

Date/timePositionNaut miles runAvg speedWind from/ knotsBaromVisibWave heightAir tempDewpointWater temp
2017-Mar-25 03:33N 51°33' W 002°59'0 0.0
2017-Mar-25 02:33N 51°33' W 002°59'0 0.0
2017-Mar-25 01:33N 51°33' W 002°59'0 0.0
2017-Mar-25 00:34N 51°33' W 002°59'0 0.0
2017-Mar-24 23:33N 51°33' W 002°59'0 0.0
2017-Mar-24 22:31N 51°33' W 002°59'0 0.0
2017-Mar-24 21:34N 51°33' W 002°59'0 0.0
2017-Mar-24 20:32N 51°33' W 002°59'0 0.0
2017-Mar-24 19:32N 51°33' W 002°59'0 0.0
2017-Mar-24 18:29N 51°33' W 002°59'1 0.6
2017-Mar-24 17:32N 51°34' W 002°59'0 0.0
2017-Mar-24 16:32N 51°34' W 002°59'0 0.0
2017-Mar-24 15:05N 51°34' W 002°59'0 0.0
2017-Mar-24 14:26N 51°34' W 002°59'0 0.0
2017-Mar-24 13:32N 51°34' W 002°59'0 0.0
2017-Mar-24 12:32N 51°34' W 002°59'0 0.0
2017-Mar-24 11:32N 51°34' W 002°59'0 0.0
2017-Mar-24 10:32N 51°34' W 002°59'0 0.0
2017-Mar-24 09:32N 51°34' W 002°59'0 0.0
2017-Mar-24 08:32N 51°34' W 002°59'0 0.0
2017-Mar-24 07:26N 51°34' W 002°59'0 0.0
2017-Mar-24 06:32N 51°34' W 002°59'0 0.0
2017-Mar-24 05:32N 51°34' W 002°59'0 0.0
2017-Mar-24 04:26N 51°34' W 002°59'0 0.0
2017-Mar-24 03:32N 51°34' W 002°59'0 0.0
2017-Mar-24 02:32N 51°34' W 002°59'0 0.0
2017-Mar-24 01:32N 51°34' W 002°59'0 0.0
2017-Mar-24 00:32N 51°34' W 002°59'0 0.0
2017-Mar-23 23:26N 51°34' W 002°59'0 0.0
2017-Mar-23 22:32N 51°34' W 002°59'0 0.0
2017-Mar-23 21:32N 51°34' W 002°59'0 0.0
2017-Mar-23 20:32N 51°34' W 002°59'0 0.0
2017-Mar-23 19:32N 51°34' W 002°59'0 0.0
2017-Mar-23 18:20N 51°34' W 002°59'0 0.0
2017-Mar-23 17:32N 51°34' W 002°59'1 0.9
2017-Mar-23 16:33N 51°33' W 002°59'3 2.9
2017-Mar-23 15:33N 51°30' W 003°00'51 9.9
2017-Mar-23 10:24N 51°14' W 004°17'910.2
2017-Mar-23 09:32N 51°08' W 004°28'10 9.9
2017-Mar-23 08:33N 51°01' W 004°39'10 9.7
2017-Mar-23 07:33N 50°55' W 004°50'10 9.5
2017-Mar-23 06:33N 50°49' W 005°02'9 9.5
2017-Mar-23 05:33N 50°42' W 005°13'9 9.4
2017-Mar-23 04:33N 50°36' W 005°24'9 9.4
2017-Mar-23 03:33N 50°30' W 005°35'10 9.6
2017-Mar-23 02:33N 50°24' W 005°47'38 7.0
2017-Mar-22 21:05N 49°54' W 005°08'6 9.8
2017-Mar-22 20:30N 49°55' W 004°59'9 9.9
2017-Mar-22 19:32N 49°56' W 004°45'10 9.9
2017-Mar-22 18:31N 49°56' W 004°29'9 9.6
2017-Mar-22 17:33N 49°57' W 004°15'10 9.5
2017-Mar-22 16:31N 49°58' W 003°59'9 9.2
2017-Mar-22 15:33N 49°59' W 003°46'9 8.9
2017-Mar-22 14:33N 49°59' W 003°32'9 8.7
2017-Mar-22 13:33N 49°60' W 003°18'9 8.7
2017-Mar-22 12:33N 50°00' W 003°05'9 8.9
2017-Mar-22 11:32N 50°02' W 002°51'34 8.5
2017-Mar-22 07:32N 50°09' W 001°59'8 8.0
2017-Mar-22 06:33N 50°01' W 001°55'8 7.7
2017-Mar-22 05:33N 49°55' W 001°50'7 6.5
2017-Mar-22 04:33N 49°52' W 001°40'7 6.9
2017-Mar-22 03:33N 49°50' W 001°30'6 6.3
2017-Mar-22 02:33N 49°48' W 001°21'6 5.7
2017-Mar-22 01:33N 49°45' W 001°13'6 6.4
2017-Mar-22 00:33N 49°43' W 001°04'7 7.3
2017-Mar-21 23:33N 49°41' W 000°53'8 7.9
2017-Mar-21 22:33N 49°38' W 000°41'8 8.0
2017-Mar-21 21:33N 49°35' W 000°30'8 8.4
2017-Mar-21 20:33N 49°32' W 000°18'8 8.5
2017-Mar-21 19:33N 49°29' W 000°06'10 9.6
2017-Mar-21 18:33N 49°26' E 000°08'1110.8
2017-Mar-21 17:33N 49°27' E 000°25'8 7.6
2017-Mar-21 16:33N 49°26' E 000°36'8 7.1
2017-Mar-21 15:26N 49°31' E 000°45'9 0.3
2017-Mar-20 12:32N 49°26' E 000°34'9 9.3
2017-Mar-20 11:34N 49°26' E 000°20'1110.7
2017-Mar-20 10:34N 49°26' E 000°04'6 5.8
2017-Mar-20 09:28N 49°28' W 000°05'0 0.0
2017-Mar-20 08:31N 49°28' W 000°05'0 0.0
2017-Mar-20 07:31N 49°28' W 000°05'0 0.0
2017-Mar-20 06:31N 49°28' W 000°05'0 0.0
2017-Mar-20 05:31N 49°28' W 000°05'0 0.0
2017-Mar-20 04:31N 49°28' W 000°05'0 0.0
2017-Mar-20 03:31N 49°28' W 000°05'0 0.0
2017-Mar-20 02:31N 49°28' W 000°05'0 0.0
2017-Mar-20 01:31N 49°28' W 000°05'0 0.0
2017-Mar-20 00:31N 49°28' W 000°05'2 2.4
2017-Mar-19 23:33N 49°30' W 000°08'1110.7
2017-Mar-19 22:33N 49°33' W 000°24'1111.2
2017-Mar-19 21:33N 49°37' W 000°40'1110.7
2017-Mar-19 20:33N 49°40' W 000°56'10 9.7
2017-Mar-19 19:33N 49°43' W 001°10'8 8.4
2017-Mar-19 18:33N 49°45' W 001°22'7 7.5
2017-Mar-19 17:33N 49°47' W 001°34'8 8.0
2017-Mar-19 16:34N 49°49' W 001°46'9 8.9
2017-Mar-19 15:33N 49°50' W 001°59'1110.2
2017-Mar-19 14:28N 49°52' W 002°16'1010.8
2017-Mar-19 13:33N 49°51' W 002°32'1111.3
2017-Mar-19 12:33N 49°48' W 002°48'1211.1
2017-Mar-19 11:31N 49°43' W 003°04'1111.0
2017-Mar-19 10:32N 49°38' W 003°18'1110.9
2017-Mar-19 09:33N 49°32' W 003°33'1210.9
2017-Mar-19 08:29N 49°26' W 003°48'1310.7
2017-Mar-19 07:15N 49°20' W 004°06'710.4
2017-Mar-19 06:33N 49°16' W 004°16'1110.3
2017-Mar-19 05:26N 49°10' W 004°31'910.0
2017-Mar-19 04:33N 49°06' W 004°42'11 9.5
2017-Mar-19 03:23N 48°60' W 004°57'8 9.0
2017-Mar-19 02:32N 48°56' W 005°07'8 8.7
2017-Mar-19 01:34N 48°52' W 005°18'9 8.6
2017-Mar-19 00:32N 48°47' W 005°30'8 8.3
2017-Mar-18 23:33N 48°41' W 005°38'9 8.7
2017-Mar-18 22:33N 48°33' W 005°44'37 8.5
2017-Mar-18 18:10N 48°00' W 006°09'6 8.5
2017-Mar-18 17:28N 47°55' W 006°07'8 8.5
2017-Mar-18 16:30N 47°47' W 006°04'9 8.6
2017-Mar-18 15:25N 47°38' W 005°59'7 8.4
2017-Mar-18 14:33N 47°31' W 005°56'  
2017-Mar-16 04:18N 39°35' W 009°51'7 9.8
2017-Mar-16 03:33N 39°28' W 009°51'10 9.8
2017-Mar-16 02:33N 39°18' W 009°51'10 9.9
2017-Mar-16 01:33N 39°08' W 009°51'10 9.8
2017-Mar-16 00:33N 38°58' W 009°51'10 9.9
2017-Mar-15 23:33N 38°48' W 009°51'10 9.5
2017-Mar-15 22:33N 38°39' W 009°50'9 9.5
2017-Mar-15 21:33N 38°30' W 009°47'10 9.6
2017-Mar-15 20:33N 38°20' W 009°44'10 9.9
2017-Mar-15 19:33N 38°11' W 009°42'1010.1
2017-Mar-15 18:33N 38°01' W 009°39'1010.2
2017-Mar-15 17:33N 37°51' W 009°37'1010.1
2017-Mar-15 16:33N 37°41' W 009°35'80 8.7
2017-Mar-15 07:20N 36°37' W 008°33'  

Dump ship's entire track history